• Join FlightAware (Why Join?)
  • Login
  • US Flag GB Flag 
05:19 EST


 

Airport Tracker/Info


-or-


 

Live Flight TrackerFlight Track Log ✈ UCA3598 ✈ 17-Apr-2014 ✈ KIAD - KBGM

Flight Track Log - Related Links

Times and Time Zones

All times are in EDT time to prevent confusion due to time zone crossing. See the UCA3598 flight status page for this flight to view local times or setup timezone preferences in your user account.

Time Position Orientation Groundspeed Altitude Reporting Facility
EDT Latitude Longitude Course Direction KTS MPH feet Rate Location/Type
22:17 38.9500 -77.5167 North 151 174 1,600  Level Potomac TRACON
22:18 38.9667 -77.5667 293° West 186 214 2,900 1,380 Climbing Potomac TRACON
22:19 38.9833 -77.6333 288° West 185 213 4,500 1,320 Climbing Potomac TRACON
22:20 39.0144 -77.6594 327° Northwest 189 217 5,200 1,080 Climbing Washington Center
22:21 39.3332 -77.4500 North  Level FlightAware Approximate
22:21 39.0578 -77.6847 336° Northwest 196 226 6,300  Level Washington Center
22:22 39.4132 -77.4500 North  Level FlightAware Approximate
22:22 39.1117 -77.7022 346° North 204 235 7,400  Level Washington Center
22:23 39.1681 -77.6986 North 204 235 8,600 1,200 Climbing Washington Center
22:24 39.2222 -77.7000 359° North 199 229 9,900 1,200 Climbing Washington Center
22:25 39.2789 -77.6775 17° North 221 254 11,000 1,020 Climbing Washington Center
22:26 39.3358 -77.6444 24° Northeast 221 254 12,000 1,080 Climbing Washington Center
22:27 39.3842 -77.6108 28° Northeast 226 260 13,200 1,080 Climbing Washington Center
22:28 39.4411 -77.5775 24° Northeast 226 260 14,200 960 Climbing Washington Center
22:29 39.5000 -77.5414 25° Northeast 226 260 15,200 900 Climbing Washington Center
22:30 39.6144 -77.4711 25° Northeast 250 288 16,800 840 Climbing New York Center
22:31 39.6822 -77.4533 11° North 245 282 17,600 660 Climbing New York Center
22:32 39.7511 -77.4517 North 245 282 18,200 360 Climbing New York Center
22:33 39.8200 -77.4528 359° North 250 288 18,400 360 Climbing New York Center
22:34 39.8908 -77.4514 North 250 288 19,000 300 Climbing New York Center
22:35 39.9681 -77.4506 360° North 262 302 19,000  Level New York Center
22:36 40.0456 -77.4472 North 272 313 19,000  Level New York Center
22:37 40.1164 -77.4458 North 278 320 19,000  Level New York Center
22:38 40.2019 -77.4458 360° North 278 320 19,000  Level New York Center
22:39 40.2728 -77.4472 359° North 278 320 19,000  Level New York Center
22:40 40.3606 -77.4447 North 272 313 19,000  Level New York Center
22:41 40.4294 -77.4433 North 277 319 19,000  Level New York Center
22:42 40.5156 -77.4325 North 277 319 19,000  Level New York Center
22:43 40.5769 -77.3783 34° Northeast 271 312 19,000  Level New York Center
22:44 40.6531 -77.3172 31° Northeast 291 335 19,000  Level New York Center
22:45 40.7167 -77.2631 33° Northeast 297 342 19,000  Level New York Center
22:46 40.7844 -77.2064 32° Northeast 297 342 19,000  Level New York Center
22:47 40.8519 -77.1497 32° Northeast 297 342 19,000  Level New York Center
22:48 40.9219 -77.0903 33° Northeast 297 342 19,000  Level New York Center
22:49 40.9917 -77.0336 32° Northeast 297 342 19,000 -60 Level New York Center
22:50 41.0594 -76.9736 34° Northeast 297 342 18,900 -600 Descending New York Center
22:51 41.1333 -76.9144 31° Northeast 297 342 17,800 -900 Descending New York Center
22:52 41.2075 -76.8494 33° Northeast 297 342 17,200 -900 Descending New York Center
22:53 41.2814 -76.7869 32° Northeast 302 348 16,100 -1,140 Descending New York Center
22:54 41.3533 -76.7242 33° Northeast 302 348 15,000 -600 Descending New York Center
22:55 41.4208 -76.6667 33° Northeast 295 339 15,000 -180 Level New York Center
22:56 41.4950 -76.6011 33° Northeast 289 333 14,700 -660 Descending New York Center
22:57 41.5622 -76.5458 32° Northeast 289 333 13,700 -960 Descending New York Center
22:58 41.6297 -76.4853 34° Northeast 289 333 12,800 -960 Descending New York Center
22:59 41.6903 -76.4347 32° Northeast 294 338 11,800 -1,020 Descending New York Center
23:00 41.7578 -76.3767 33° Northeast 294 338 10,800 -1,080 Descending New York Center
23:01 41.8272 -76.3156 33° Northeast 282 325 9,700 -1,080 Descending New York Center
23:02 41.8903 -76.2594 34° Northeast 275 316 8,700 -960 Descending New York Center
23:03 41.9531 -76.2061 32° Northeast 270 311 7,800 -960 Descending New York Center
23:04 42.0169 -76.1750 20° North 261 300 6,800 -960 Descending New York Center
23:05 42.0892 -76.1419 19° North 256 295 5,900 -1,020 Descending New York Center
23:06 42.1467 -76.1131 20° North 233 268 4,800 -900 Descending New York Center
23:07 42.1997 -76.0922 16° North 213 245 4,100 -660 Descending New York Center
23:08 42.2528 -76.0714 16° North 201 231 3,500 -360 Descending New York Center
23:09 42.2711 -76.0336 57° Northeast 140 161 3,400 -600 Descending New York Center
23:10 42.2450 -76.0089 145° Southeast 72 83 2,400 -600 Descending New York Center
23:11 42.2397 -75.9861 107° East 72 83 2,200 -240 Descending New York Center
23:13 42.2084 -75.9796 160° South  Level Estimated
23:20 42.2084 -75.9796 North  Level Estimated
23:21 42.2084 -75.9796 131° Southeast  Level Estimated
23:22 42.2084 -75.9796 North  Level Estimated